If you wish to contribute or participate in the discussions about articles you are invited to join SKYbrary as a registered user

 Actions

Sarajevo International Airport

From SKYbrary Wiki

LQSA /
Revision as of 07:02, 26 August 2021 by Integration.Manager (talk | contribs)
(diff) ← Older revision | Latest revision (diff) | Newer revision → (diff)
Airport
ICAO: LQSA – IATA: SJJ
Summary
Name Sarajevo International Airport
Region Europe
Territory Bosnia and Herzegovina BA.gif
Location Butmir, Sarajevo
Serving Sarajevo
Elevation 520.598 m <br />1,708 ft520.598 m <br />
Coordinates 43° 49' 27.98" N, 18° 19' 53.00" E
Runways
Designator Length Width Surface ROPS
12/30 2641 m8,664.698 ft <br /> 46 m150.919 ft <br /> ASP yes/yes


METAR
Observation LQSA 270730Z VRB01KT 6000 OVC025 04/03 Q1027 NOSIG
Station Sarajevo
Date/Time 27 October 2021 07:30:00
Wind direction °
Wind speed 01 kts
Lowest cloud amount overcast
Temperature 4°C
Dew point 3°C
Humidity 93%
QNH 1027 hPa
Weather condition n/a

Sarajevo International Airport, also known as Butmir Airport, is the main international airport in Bosnia and Herzegovina, located 3.3 nm6,111.6 m <br />6.112 km <br />20,051.181 ft <br /> southwest of the capital city of Sarajevo in the suburb of Butmir.

Climatology

Humid continental climate (Köppen climate classification Dfb)

Maps

Terrain

Loading map...

Airport Layout

Loading map...


Accidents & Serious Incidents at or in vicinity of LQSA

None on SKYbrary